sensor_id;sensor_type;location;lat;lon;timestamp;P1;durP1;ratioP1;P2;durP2;ratioP2
48006;SDS011;33771;48.180;11.400;2023-07-29T00:00:45;6.00;;;4.00;;
48006;SDS011;33771;48.180;11.400;2023-07-29T00:03:11;8.20;;;4.68;;
48006;SDS011;33771;48.180;11.400;2023-07-29T00:05:37;5.72;;;4.13;;
48006;SDS011;33771;48.180;11.400;2023-07-29T00:08:03;7.80;;;4.30;;
48006;SDS011;33771;48.180;11.400;2023-07-29T00:10:30;6.93;;;4.10;;
48006;SDS011;33771;48.180;11.400;2023-07-29T00:12:56;6.78;;;3.97;;
48006;SDS011;33771;48.180;11.400;2023-07-29T00:15:22;6.63;;;4.40;;
48006;SDS011;33771;48.180;11.400;2023-07-29T00:17:48;6.03;;;4.35;;
48006;SDS011;33771;48.180;11.400;2023-07-29T00:20:13;5.75;;;4.10;;
48006;SDS011;33771;48.180;11.400;2023-07-29T00:22:39;6.75;;;4.45;;
48006;SDS011;33771;48.180;11.400;2023-07-29T00:25:04;6.28;;;4.05;;
48006;SDS011;33771;48.180;11.400;2023-07-29T00:27:30;8.30;;;4.20;;
48006;SDS011;33771;48.180;11.400;2023-07-29T00:29:56;6.85;;;4.38;;
48006;SDS011;33771;48.180;11.400;2023-07-29T00:32:21;5.68;;;3.88;;
48006;SDS011;33771;48.180;11.400;2023-07-29T00:34:48;6.20;;;4.00;;
48006;SDS011;33771;48.180;11.400;2023-07-29T00:37:14;9.02;;;4.45;;
48006;SDS011;33771;48.180;11.400;2023-07-29T00:39:40;5.55;;;4.45;;
48006;SDS011;33771;48.180;11.400;2023-07-29T00:42:06;7.05;;;4.10;;
48006;SDS011;33771;48.180;11.400;2023-07-29T00:44:31;6.68;;;4.13;;
48006;SDS011;33771;48.180;11.400;2023-07-29T00:46:57;5.68;;;4.07;;
48006;SDS011;33771;48.180;11.400;2023-07-29T00:49:25;6.72;;;4.10;;
48006;SDS011;33771;48.180;11.400;2023-07-29T00:51:51;7.60;;;4.63;;
48006;SDS011;33771;48.180;11.400;2023-07-29T00:54:16;8.80;;;4.55;;
48006;SDS011;33771;48.180;11.400;2023-07-29T00:56:42;8.63;;;4.30;;
48006;SDS011;33771;48.180;11.400;2023-07-29T00:59:08;7.82;;;3.90;;
48006;SDS011;33771;48.180;11.400;2023-07-29T01:01:33;6.28;;;4.22;;
48006;SDS011;33771;48.180;11.400;2023-07-29T01:03:59;7.38;;;4.22;;
48006;SDS011;33771;48.180;11.400;2023-07-29T01:06:40;6.13;;;4.18;;
48006;SDS011;33771;48.180;11.400;2023-07-29T01:09:34;7.13;;;3.92;;
48006;SDS011;33771;48.180;11.400;2023-07-29T01:14:41;7.93;;;3.70;;
48006;SDS011;33771;48.180;11.400;2023-07-29T01:17:23;5.60;;;3.67;;
48006;SDS011;33771;48.180;11.400;2023-07-29T01:20:06;7.32;;;4.30;;
48006;SDS011;33771;48.180;11.400;2023-07-29T01:22:34;6.53;;;3.90;;
48006;SDS011;33771;48.180;11.400;2023-07-29T01:25:01;4.63;;;4.07;;
48006;SDS011;33771;48.180;11.400;2023-07-29T01:27:27;6.18;;;3.47;;
48006;SDS011;33771;48.180;11.400;2023-07-29T01:29:54;8.93;;;3.80;;
48006;SDS011;33771;48.180;11.400;2023-07-29T01:32:43;5.93;;;4.03;;
48006;SDS011;33771;48.180;11.400;2023-07-29T01:35:46;5.53;;;3.42;;
48006;SDS011;33771;48.180;11.400;2023-07-29T01:38:27;6.18;;;3.60;;
48006;SDS011;33771;48.180;11.400;2023-07-29T01:41:01;7.07;;;3.90;;
48006;SDS011;33771;48.180;11.400;2023-07-29T01:43:28;6.53;;;3.72;;
48006;SDS011;33771;48.180;11.400;2023-07-29T01:45:54;6.28;;;3.67;;
48006;SDS011;33771;48.180;11.400;2023-07-29T01:48:20;6.32;;;3.88;;
48006;SDS011;33771;48.180;11.400;2023-07-29T01:50:46;8.88;;;3.30;;
48006;SDS011;33771;48.180;11.400;2023-07-29T01:53:12;6.35;;;3.70;;
48006;SDS011;33771;48.180;11.400;2023-07-29T01:55:38;5.18;;;3.75;;
48006;SDS011;33771;48.180;11.400;2023-07-29T01:58:04;6.07;;;3.42;;
48006;SDS011;33771;48.180;11.400;2023-07-29T02:00:29;7.00;;;3.30;;
48006;SDS011;33771;48.180;11.400;2023-07-29T02:02:55;8.25;;;3.63;;
48006;SDS011;33771;48.180;11.400;2023-07-29T02:05:20;5.88;;;3.47;;
48006;SDS011;33771;48.180;11.400;2023-07-29T02:07:46;4.40;;;3.53;;
48006;SDS011;33771;48.180;11.400;2023-07-29T02:10:12;6.35;;;3.60;;
48006;SDS011;33771;48.180;11.400;2023-07-29T02:12:37;4.97;;;3.30;;
48006;SDS011;33771;48.180;11.400;2023-07-29T02:15:03;5.90;;;3.60;;
48006;SDS011;33771;48.180;11.400;2023-07-29T02:17:30;5.28;;;3.42;;
48006;SDS011;33771;48.180;11.400;2023-07-29T02:19:56;6.82;;;3.38;;
48006;SDS011;33771;48.180;11.400;2023-07-29T02:22:21;9.05;;;3.70;;
48006;SDS011;33771;48.180;11.400;2023-07-29T02:24:47;8.73;;;3.47;;
48006;SDS011;33771;48.180;11.400;2023-07-29T02:27:12;8.07;;;3.20;;
48006;SDS011;33771;48.180;11.400;2023-07-29T02:29:38;6.82;;;3.90;;
48006;SDS011;33771;48.180;11.400;2023-07-29T02:32:04;4.70;;;3.50;;
48006;SDS011;33771;48.180;11.400;2023-07-29T02:34:30;4.78;;;3.30;;
48006;SDS011;33771;48.180;11.400;2023-07-29T02:36:55;4.65;;;3.20;;
48006;SDS011;33771;48.180;11.400;2023-07-29T02:39:21;3.92;;;3.10;;
48006;SDS011;33771;48.180;11.400;2023-07-29T02:41:46;7.13;;;3.53;;
48006;SDS011;33771;48.180;11.400;2023-07-29T02:44:12;6.78;;;3.25;;
48006;SDS011;33771;48.180;11.400;2023-07-29T02:46:37;4.90;;;2.90;;
48006;SDS011;33771;48.180;11.400;2023-07-29T02:49:03;5.38;;;3.38;;
48006;SDS011;33771;48.180;11.400;2023-07-29T02:51:29;5.03;;;3.17;;
48006;SDS011;33771;48.180;11.400;2023-07-29T02:53:55;5.10;;;3.25;;
48006;SDS011;33771;48.180;11.400;2023-07-29T02:56:21;6.78;;;3.20;;
48006;SDS011;33771;48.180;11.400;2023-07-29T02:58:47;4.30;;;3.13;;
48006;SDS011;33771;48.180;11.400;2023-07-29T03:01:12;5.60;;;3.63;;
48006;SDS011;33771;48.180;11.400;2023-07-29T03:03:39;5.55;;;3.28;;
48006;SDS011;33771;48.180;11.400;2023-07-29T03:06:05;5.45;;;3.00;;
48006;SDS011;33771;48.180;11.400;2023-07-29T03:08:32;3.95;;;3.10;;
48006;SDS011;33771;48.180;11.400;2023-07-29T03:10:58;5.88;;;3.05;;
48006;SDS011;33771;48.180;11.400;2023-07-29T03:13:24;3.90;;;2.92;;
48006;SDS011;33771;48.180;11.400;2023-07-29T03:15:50;7.45;;;3.50;;
48006;SDS011;33771;48.180;11.400;2023-07-29T03:18:16;6.85;;;3.03;;
48006;SDS011;33771;48.180;11.400;2023-07-29T03:20:42;7.45;;;3.78;;
48006;SDS011;33771;48.180;11.400;2023-07-29T03:23:07;6.68;;;3.03;;
48006;SDS011;33771;48.180;11.400;2023-07-29T03:25:33;3.53;;;2.78;;
48006;SDS011;33771;48.180;11.400;2023-07-29T03:27:58;4.30;;;3.08;;
48006;SDS011;33771;48.180;11.400;2023-07-29T03:30:24;5.47;;;2.97;;
48006;SDS011;33771;48.180;11.400;2023-07-29T03:32:50;6.90;;;3.20;;
48006;SDS011;33771;48.180;11.400;2023-07-29T03:35:16;9.90;;;3.10;;
48006;SDS011;33771;48.180;11.400;2023-07-29T03:37:41;4.72;;;3.00;;
48006;SDS011;33771;48.180;11.400;2023-07-29T03:40:07;5.40;;;3.35;;
48006;SDS011;33771;48.180;11.400;2023-07-29T03:42:36;4.43;;;3.15;;
48006;SDS011;33771;48.180;11.400;2023-07-29T03:45:02;4.55;;;2.85;;
48006;SDS011;33771;48.180;11.400;2023-07-29T03:47:27;5.63;;;2.80;;
48006;SDS011;33771;48.180;11.400;2023-07-29T03:49:53;5.43;;;2.90;;
48006;SDS011;33771;48.180;11.400;2023-07-29T03:52:19;7.90;;;3.35;;
48006;SDS011;33771;48.180;11.400;2023-07-29T03:54:45;4.65;;;3.03;;
48006;SDS011;33771;48.180;11.400;2023-07-29T03:57:10;5.05;;;2.83;;
48006;SDS011;33771;48.180;11.400;2023-07-29T03:59:36;5.28;;;3.20;;
48006;SDS011;33771;48.180;11.400;2023-07-29T04:02:01;5.18;;;3.03;;
48006;SDS011;33771;48.180;11.400;2023-07-29T04:04:27;3.92;;;2.83;;
48006;SDS011;33771;48.180;11.400;2023-07-29T04:06:52;5.25;;;3.00;;
48006;SDS011;33771;48.180;11.400;2023-07-29T04:09:18;3.92;;;2.85;;
48006;SDS011;33771;48.180;11.400;2023-07-29T04:11:44;3.40;;;2.63;;
48006;SDS011;33771;48.180;11.400;2023-07-29T04:14:10;3.70;;;2.92;;
48006;SDS011;33771;48.180;11.400;2023-07-29T04:16:35;4.10;;;2.80;;
48006;SDS011;33771;48.180;11.400;2023-07-29T04:19:01;7.85;;;3.25;;
48006;SDS011;33771;48.180;11.400;2023-07-29T04:21:26;3.70;;;2.90;;
48006;SDS011;33771;48.180;11.400;2023-07-29T04:23:52;5.32;;;3.13;;
48006;SDS011;33771;48.180;11.400;2023-07-29T04:26:17;4.97;;;3.15;;
48006;SDS011;33771;48.180;11.400;2023-07-29T04:28:43;4.20;;;2.70;;
48006;SDS011;33771;48.180;11.400;2023-07-29T04:31:08;3.70;;;2.65;;
48006;SDS011;33771;48.180;11.400;2023-07-29T04:33:34;4.70;;;3.00;;
48006;SDS011;33771;48.180;11.400;2023-07-29T04:35:59;5.57;;;2.67;;
48006;SDS011;33771;48.180;11.400;2023-07-29T04:38:30;4.20;;;2.72;;
48006;SDS011;33771;48.180;11.400;2023-07-29T04:40:59;5.70;;;2.88;;
48006;SDS011;33771;48.180;11.400;2023-07-29T04:43:32;6.03;;;2.97;;
48006;SDS011;33771;48.180;11.400;2023-07-29T04:45:58;6.82;;;3.22;;
48006;SDS011;33771;48.180;11.400;2023-07-29T04:48:23;4.95;;;2.90;;
48006;SDS011;33771;48.180;11.400;2023-07-29T04:50:49;3.83;;;2.90;;
48006;SDS011;33771;48.180;11.400;2023-07-29T04:53:14;4.53;;;2.90;;
48006;SDS011;33771;48.180;11.400;2023-07-29T04:55:41;5.60;;;3.38;;
48006;SDS011;33771;48.180;11.400;2023-07-29T04:58:08;4.63;;;2.92;;
48006;SDS011;33771;48.180;11.400;2023-07-29T05:00:34;4.70;;;2.40;;
48006;SDS011;33771;48.180;11.400;2023-07-29T05:02:59;7.90;;;2.70;;
48006;SDS011;33771;48.180;11.400;2023-07-29T05:05:26;4.47;;;2.58;;
48006;SDS011;33771;48.180;11.400;2023-07-29T05:07:51;5.95;;;2.65;;
48006;SDS011;33771;48.180;11.400;2023-07-29T05:10:17;3.63;;;2.78;;
48006;SDS011;33771;48.180;11.400;2023-07-29T05:12:43;6.13;;;2.65;;
48006;SDS011;33771;48.180;11.400;2023-07-29T05:15:09;4.60;;;3.00;;
48006;SDS011;33771;48.180;11.400;2023-07-29T05:17:34;5.40;;;2.70;;
48006;SDS011;33771;48.180;11.400;2023-07-29T05:20:00;7.78;;;2.50;;
48006;SDS011;33771;48.180;11.400;2023-07-29T05:22:25;4.35;;;2.75;;
48006;SDS011;33771;48.180;11.400;2023-07-29T05:24:51;4.70;;;2.50;;
48006;SDS011;33771;48.180;11.400;2023-07-29T05:27:16;3.75;;;2.60;;
48006;SDS011;33771;48.180;11.400;2023-07-29T05:29:42;4.30;;;2.53;;
48006;SDS011;33771;48.180;11.400;2023-07-29T05:32:08;3.92;;;2.67;;
48006;SDS011;33771;48.180;11.400;2023-07-29T05:34:33;5.68;;;2.65;;
48006;SDS011;33771;48.180;11.400;2023-07-29T05:36:59;6.25;;;2.70;;
48006;SDS011;33771;48.180;11.400;2023-07-29T05:39:24;6.78;;;2.42;;
48006;SDS011;33771;48.180;11.400;2023-07-29T05:41:50;6.38;;;3.17;;
48006;SDS011;33771;48.180;11.400;2023-07-29T05:44:15;4.57;;;2.97;;
48006;SDS011;33771;48.180;11.400;2023-07-29T05:46:41;4.13;;;2.40;;
48006;SDS011;33771;48.180;11.400;2023-07-29T05:49:07;4.00;;;2.67;;
48006;SDS011;33771;48.180;11.400;2023-07-29T05:51:32;3.55;;;2.47;;
48006;SDS011;33771;48.180;11.400;2023-07-29T05:53:58;3.42;;;2.50;;
48006;SDS011;33771;48.180;11.400;2023-07-29T05:56:23;9.88;;;3.17;;
48006;SDS011;33771;48.180;11.400;2023-07-29T05:58:49;15.65;;;4.00;;
48006;SDS011;33771;48.180;11.400;2023-07-29T06:01:14;11.80;;;3.95;;
48006;SDS011;33771;48.180;11.400;2023-07-29T06:03:40;9.27;;;3.08;;
48006;SDS011;33771;48.180;11.400;2023-07-29T06:06:06;6.32;;;3.08;;
48006;SDS011;33771;48.180;11.400;2023-07-29T06:08:31;22.55;;;3.45;;
48006;SDS011;33771;48.180;11.400;2023-07-29T06:10:59;7.57;;;3.05;;
48006;SDS011;33771;48.180;11.400;2023-07-29T06:13:25;6.65;;;2.67;;
48006;SDS011;33771;48.180;11.400;2023-07-29T06:15:50;5.13;;;3.00;;
48006;SDS011;33771;48.180;11.400;2023-07-29T06:18:16;3.45;;;2.47;;
48006;SDS011;33771;48.180;11.400;2023-07-29T06:20:41;5.63;;;2.85;;
48006;SDS011;33771;48.180;11.400;2023-07-29T06:23:07;4.10;;;2.42;;
48006;SDS011;33771;48.180;11.400;2023-07-29T06:25:33;4.03;;;2.55;;
48006;SDS011;33771;48.180;11.400;2023-07-29T06:27:59;5.20;;;2.35;;
48006;SDS011;33771;48.180;11.400;2023-07-29T06:30:24;3.25;;;2.45;;
48006;SDS011;33771;48.180;11.400;2023-07-29T06:32:50;5.38;;;2.40;;
48006;SDS011;33771;48.180;11.400;2023-07-29T06:35:16;5.57;;;2.65;;
48006;SDS011;33771;48.180;11.400;2023-07-29T06:37:41;4.18;;;2.40;;
48006;SDS011;33771;48.180;11.400;2023-07-29T06:40:07;5.57;;;2.30;;
48006;SDS011;33771;48.180;11.400;2023-07-29T06:42:33;5.03;;;2.50;;
48006;SDS011;33771;48.180;11.400;2023-07-29T06:44:58;5.55;;;2.58;;
48006;SDS011;33771;48.180;11.400;2023-07-29T06:47:24;5.90;;;2.20;;
48006;SDS011;33771;48.180;11.400;2023-07-29T06:49:50;5.95;;;2.90;;
48006;SDS011;33771;48.180;11.400;2023-07-29T06:52:15;4.22;;;2.72;;
48006;SDS011;33771;48.180;11.400;2023-07-29T06:54:41;5.18;;;2.30;;
48006;SDS011;33771;48.180;11.400;2023-07-29T06:57:06;6.63;;;2.63;;
48006;SDS011;33771;48.180;11.400;2023-07-29T06:59:32;5.82;;;2.72;;
48006;SDS011;33771;48.180;11.400;2023-07-29T07:01:57;5.43;;;2.92;;
48006;SDS011;33771;48.180;11.400;2023-07-29T07:04:24;5.15;;;2.80;;
48006;SDS011;33771;48.180;11.400;2023-07-29T07:06:50;5.32;;;3.25;;
48006;SDS011;33771;48.180;11.400;2023-07-29T07:09:15;7.22;;;3.17;;
48006;SDS011;33771;48.180;11.400;2023-07-29T07:11:41;5.30;;;2.90;;
48006;SDS011;33771;48.180;11.400;2023-07-29T07:14:07;4.82;;;2.58;;
48006;SDS011;33771;48.180;11.400;2023-07-29T07:16:32;8.15;;;3.47;;
48006;SDS011;33771;48.180;11.400;2023-07-29T07:18:58;6.03;;;3.08;;
48006;SDS011;33771;48.180;11.400;2023-07-29T07:21:23;7.50;;;3.33;;
48006;SDS011;33771;48.180;11.400;2023-07-29T07:23:49;5.20;;;3.10;;
48006;SDS011;33771;48.180;11.400;2023-07-29T07:26:15;9.63;;;3.42;;
48006;SDS011;33771;48.180;11.400;2023-07-29T07:28:41;7.93;;;3.10;;
48006;SDS011;33771;48.180;11.400;2023-07-29T07:31:06;4.57;;;3.08;;
48006;SDS011;33771;48.180;11.400;2023-07-29T07:33:32;5.43;;;3.03;;
48006;SDS011;33771;48.180;11.400;2023-07-29T07:35:57;9.68;;;3.60;;
48006;SDS011;33771;48.180;11.400;2023-07-29T07:38:23;4.68;;;3.08;;
48006;SDS011;33771;48.180;11.400;2023-07-29T07:40:55;5.43;;;3.03;;
48006;SDS011;33771;48.180;11.400;2023-07-29T07:43:21;7.03;;;3.35;;
48006;SDS011;33771;48.180;11.400;2023-07-29T07:45:47;4.80;;;3.00;;
48006;SDS011;33771;48.180;11.400;2023-07-29T07:48:13;4.03;;;2.95;;
48006;SDS011;33771;48.180;11.400;2023-07-29T07:50:39;6.07;;;3.20;;
48006;SDS011;33771;48.180;11.400;2023-07-29T07:53:04;5.68;;;3.38;;
48006;SDS011;33771;48.180;11.400;2023-07-29T07:55:30;5.95;;;3.03;;
48006;SDS011;33771;48.180;11.400;2023-07-29T07:57:56;7.90;;;3.38;;
48006;SDS011;33771;48.180;11.400;2023-07-29T08:00:21;4.63;;;3.25;;
48006;SDS011;33771;48.180;11.400;2023-07-29T08:02:47;4.97;;;3.40;;
48006;SDS011;33771;48.180;11.400;2023-07-29T08:05:12;4.15;;;3.33;;
48006;SDS011;33771;48.180;11.400;2023-07-29T08:07:38;4.88;;;2.60;;
48006;SDS011;33771;48.180;11.400;2023-07-29T08:10:03;3.85;;;3.00;;
48006;SDS011;33771;48.180;11.400;2023-07-29T08:12:29;5.90;;;3.20;;
48006;SDS011;33771;48.180;11.400;2023-07-29T08:14:55;3.80;;;2.83;;
48006;SDS011;33771;48.180;11.400;2023-07-29T08:17:20;6.30;;;3.35;;
48006;SDS011;33771;48.180;11.400;2023-07-29T08:19:46;3.67;;;3.13;;
48006;SDS011;33771;48.180;11.400;2023-07-29T08:22:12;4.35;;;3.10;;
48006;SDS011;33771;48.180;11.400;2023-07-29T08:24:37;3.60;;;2.85;;
48006;SDS011;33771;48.180;11.400;2023-07-29T08:27:03;3.90;;;2.88;;
48006;SDS011;33771;48.180;11.400;2023-07-29T08:29:29;3.85;;;2.90;;
48006;SDS011;33771;48.180;11.400;2023-07-29T08:31:54;5.53;;;2.97;;
48006;SDS011;33771;48.180;11.400;2023-07-29T08:34:20;5.07;;;3.10;;
48006;SDS011;33771;48.180;11.400;2023-07-29T08:36:45;4.40;;;2.80;;
48006;SDS011;33771;48.180;11.400;2023-07-29T08:39:11;6.05;;;3.10;;
48006;SDS011;33771;48.180;11.400;2023-07-29T08:44:40;3.53;;;2.92;;
48006;SDS011;33771;48.180;11.400;2023-07-29T08:47:07;5.65;;;2.78;;
48006;SDS011;33771;48.180;11.400;2023-07-29T08:49:33;4.20;;;3.25;;
48006;SDS011;33771;48.180;11.400;2023-07-29T08:51:58;4.47;;;3.00;;
48006;SDS011;33771;48.180;11.400;2023-07-29T08:54:26;6.22;;;3.10;;
48006;SDS011;33771;48.180;11.400;2023-07-29T08:56:51;4.70;;;3.20;;
48006;SDS011;33771;48.180;11.400;2023-07-29T08:59:17;4.93;;;3.25;;
48006;SDS011;33771;48.180;11.400;2023-07-29T09:01:44;3.50;;;2.75;;
48006;SDS011;33771;48.180;11.400;2023-07-29T09:04:10;5.72;;;3.10;;
48006;SDS011;33771;48.180;11.400;2023-07-29T09:06:35;4.57;;;3.15;;
48006;SDS011;33771;48.180;11.400;2023-07-29T09:09:07;4.38;;;3.17;;
48006;SDS011;33771;48.180;11.400;2023-07-29T09:11:32;3.60;;;2.65;;
48006;SDS011;33771;48.180;11.400;2023-07-29T09:13:58;5.57;;;3.35;;
48006;SDS011;33771;48.180;11.400;2023-07-29T09:16:24;4.43;;;2.90;;
48006;SDS011;33771;48.180;11.400;2023-07-29T09:18:51;5.88;;;3.30;;
48006;SDS011;33771;48.180;11.400;2023-07-29T09:21:17;5.57;;;3.00;;
48006;SDS011;33771;48.180;11.400;2023-07-29T09:23:48;4.80;;;2.83;;
48006;SDS011;33771;48.180;11.400;2023-07-29T09:26:21;4.18;;;3.03;;
48006;SDS011;33771;48.180;11.400;2023-07-29T09:28:51;5.03;;;3.03;;
48006;SDS011;33771;48.180;11.400;2023-07-29T09:31:24;7.03;;;3.10;;
48006;SDS011;33771;48.180;11.400;2023-07-29T09:33:58;4.93;;;2.83;;
48006;SDS011;33771;48.180;11.400;2023-07-29T09:36:25;4.73;;;2.70;;
48006;SDS011;33771;48.180;11.400;2023-07-29T09:38:52;4.60;;;2.90;;
48006;SDS011;33771;48.180;11.400;2023-07-29T09:41:19;6.63;;;3.38;;
48006;SDS011;33771;48.180;11.400;2023-07-29T09:43:56;5.88;;;3.33;;
48006;SDS011;33771;48.180;11.400;2023-07-29T09:46:23;6.30;;;3.40;;
48006;SDS011;33771;48.180;11.400;2023-07-29T09:48:52;5.35;;;3.40;;
48006;SDS011;33771;48.180;11.400;2023-07-29T09:51:19;4.22;;;3.20;;
48006;SDS011;33771;48.180;11.400;2023-07-29T09:53:46;4.20;;;2.95;;
48006;SDS011;33771;48.180;11.400;2023-07-29T09:56:12;4.47;;;2.90;;
48006;SDS011;33771;48.180;11.400;2023-07-29T09:58:39;5.18;;;3.15;;
48006;SDS011;33771;48.180;11.400;2023-07-29T10:01:08;5.20;;;3.35;;
48006;SDS011;33771;48.180;11.400;2023-07-29T10:03:34;7.53;;;3.20;;
48006;SDS011;33771;48.180;11.400;2023-07-29T10:06:01;6.50;;;3.03;;
48006;SDS011;33771;48.180;11.400;2023-07-29T10:08:29;3.15;;;2.70;;
48006;SDS011;33771;48.180;11.400;2023-07-29T10:10:58;3.55;;;2.95;;
48006;SDS011;33771;48.180;11.400;2023-07-29T10:13:25;4.97;;;2.92;;
48006;SDS011;33771;48.180;11.400;2023-07-29T10:15:52;3.53;;;2.70;;
48006;SDS011;33771;48.180;11.400;2023-07-29T10:18:19;16.65;;;3.38;;
48006;SDS011;33771;48.180;11.400;2023-07-29T10:20:47;83.18;;;8.05;;
48006;SDS011;33771;48.180;11.400;2023-07-29T10:23:15;4.68;;;2.70;;
48006;SDS011;33771;48.180;11.400;2023-07-29T10:25:43;4.13;;;3.10;;
48006;SDS011;33771;48.180;11.400;2023-07-29T10:28:12;5.63;;;3.20;;
48006;SDS011;33771;48.180;11.400;2023-07-29T10:30:42;9.50;;;3.42;;
48006;SDS011;33771;48.180;11.400;2023-07-29T10:33:08;17.02;;;3.67;;
48006;SDS011;33771;48.180;11.400;2023-07-29T10:35:35;8.98;;;3.38;;
48006;SDS011;33771;48.180;11.400;2023-07-29T10:38:02;4.15;;;2.95;;
48006;SDS011;33771;48.180;11.400;2023-07-29T10:51:29;6.18;;;2.63;;
48006;SDS011;33771;48.180;11.400;2023-07-29T10:54:12;7.95;;;3.75;;
48006;SDS011;33771;48.180;11.400;2023-07-29T10:56:42;4.72;;;2.90;;
48006;SDS011;33771;48.180;11.400;2023-07-29T11:01:38;4.53;;;2.80;;
48006;SDS011;33771;48.180;11.400;2023-07-29T11:14:59;20.95;;;2.95;;
48006;SDS011;33771;48.180;11.400;2023-07-29T11:17:49;3.55;;;2.00;;
48006;SDS011;33771;48.180;11.400;2023-07-29T11:20:23;2.50;;;1.80;;
48006;SDS011;33771;48.180;11.400;2023-07-29T11:22:50;2.35;;;1.90;;
48006;SDS011;33771;48.180;11.400;2023-07-29T11:25:17;6.43;;;2.30;;
48006;SDS011;33771;48.180;11.400;2023-07-29T11:27:44;6.25;;;2.15;;
48006;SDS011;33771;48.180;11.400;2023-07-29T11:30:11;2.83;;;1.80;;
48006;SDS011;33771;48.180;11.400;2023-07-29T11:32:38;4.72;;;2.28;;
48006;SDS011;33771;48.180;11.400;2023-07-29T11:35:06;2.97;;;2.10;;
48006;SDS011;33771;48.180;11.400;2023-07-29T11:37:34;3.63;;;2.05;;
48006;SDS011;33771;48.180;11.400;2023-07-29T11:40:00;4.07;;;2.30;;
48006;SDS011;33771;48.180;11.400;2023-07-29T11:42:27;4.85;;;2.30;;
48006;SDS011;33771;48.180;11.400;2023-07-29T11:44:53;3.17;;;2.08;;
48006;SDS011;33771;48.180;11.400;2023-07-29T11:47:23;2.75;;;2.10;;
48006;SDS011;33771;48.180;11.400;2023-07-29T11:49:48;3.15;;;2.35;;
48006;SDS011;33771;48.180;11.400;2023-07-29T11:52:14;3.90;;;2.30;;
48006;SDS011;33771;48.180;11.400;2023-07-29T11:54:43;4.47;;;2.67;;
48006;SDS011;33771;48.180;11.400;2023-07-29T11:57:10;3.22;;;2.30;;
48006;SDS011;33771;48.180;11.400;2023-07-29T11:59:36;2.95;;;2.28;;
48006;SDS011;33771;48.180;11.400;2023-07-29T12:02:06;3.55;;;2.35;;
48006;SDS011;33771;48.180;11.400;2023-07-29T12:04:37;3.03;;;2.40;;
48006;SDS011;33771;48.180;11.400;2023-07-29T12:07:04;4.43;;;2.35;;
48006;SDS011;33771;48.180;11.400;2023-07-29T12:09:30;3.78;;;2.42;;
48006;SDS011;33771;48.180;11.400;2023-07-29T12:11:56;3.40;;;2.28;;
48006;SDS011;33771;48.180;11.400;2023-07-29T12:14:25;5.10;;;2.50;;
48006;SDS011;33771;48.180;11.400;2023-07-29T12:16:52;4.00;;;2.63;;
48006;SDS011;33771;48.180;11.400;2023-07-29T12:19:18;3.65;;;2.47;;
48006;SDS011;33771;48.180;11.400;2023-07-29T12:21:44;3.40;;;2.33;;
48006;SDS011;33771;48.180;11.400;2023-07-29T12:24:13;3.35;;;2.42;;
48006;SDS011;33771;48.180;11.400;2023-07-29T12:26:41;4.70;;;2.33;;
48006;SDS011;33771;48.180;11.400;2023-07-29T12:29:14;3.20;;;2.55;;
48006;SDS011;33771;48.180;11.400;2023-07-29T12:31:41;3.83;;;2.38;;
48006;SDS011;33771;48.180;11.400;2023-07-29T12:34:08;4.30;;;2.70;;
48006;SDS011;33771;48.180;11.400;2023-07-29T12:36:43;3.60;;;2.65;;
48006;SDS011;33771;48.180;11.400;2023-07-29T12:39:20;4.95;;;3.22;;
48006;SDS011;33771;48.180;11.400;2023-07-29T12:41:48;12.00;;;4.63;;
48006;SDS011;33771;48.180;11.400;2023-07-29T12:44:15;10.02;;;4.38;;
48006;SDS011;33771;48.180;11.400;2023-07-29T12:46:40;12.48;;;5.07;;
48006;SDS011;33771;48.180;11.400;2023-07-29T12:49:06;7.13;;;4.70;;
48006;SDS011;33771;48.180;11.400;2023-07-29T12:51:32;7.35;;;3.80;;
48006;SDS011;33771;48.180;11.400;2023-07-29T12:53:58;8.32;;;3.85;;
48006;SDS011;33771;48.180;11.400;2023-07-29T12:56:23;7.75;;;3.78;;
48006;SDS011;33771;48.180;11.400;2023-07-29T12:58:49;5.55;;;3.75;;
48006;SDS011;33771;48.180;11.400;2023-07-29T13:01:15;9.70;;;4.00;;
48006;SDS011;33771;48.180;11.400;2023-07-29T13:03:44;6.78;;;3.80;;
48006;SDS011;33771;48.180;11.400;2023-07-29T13:06:10;7.55;;;3.80;;
48006;SDS011;33771;48.180;11.400;2023-07-29T13:08:36;9.18;;;3.97;;
48006;SDS011;33771;48.180;11.400;2023-07-29T13:11:02;6.38;;;3.70;;
48006;SDS011;33771;48.180;11.400;2023-07-29T13:13:28;4.55;;;3.63;;
48006;SDS011;33771;48.180;11.400;2023-07-29T13:15:54;7.25;;;3.72;;
48006;SDS011;33771;48.180;11.400;2023-07-29T13:18:19;5.72;;;4.10;;
48006;SDS011;33771;48.180;11.400;2023-07-29T13:20:46;6.80;;;4.10;;
48006;SDS011;33771;48.180;11.400;2023-07-29T13:23:11;6.10;;;3.95;;
48006;SDS011;33771;48.180;11.400;2023-07-29T13:25:36;5.43;;;4.07;;
48006;SDS011;33771;48.180;11.400;2023-07-29T13:28:02;9.52;;;4.53;;
48006;SDS011;33771;48.180;11.400;2023-07-29T13:30:28;8.45;;;4.20;;
48006;SDS011;33771;48.180;11.400;2023-07-29T13:32:54;7.93;;;4.20;;
48006;SDS011;33771;48.180;11.400;2023-07-29T13:35:19;5.93;;;4.05;;
48006;SDS011;33771;48.180;11.400;2023-07-29T13:37:45;5.70;;;3.83;;
48006;SDS011;33771;48.180;11.400;2023-07-29T13:40:10;4.75;;;3.35;;
48006;SDS011;33771;48.180;11.400;2023-07-29T13:42:36;5.80;;;3.53;;
48006;SDS011;33771;48.180;11.400;2023-07-29T13:45:02;6.43;;;3.67;;
48006;SDS011;33771;48.180;11.400;2023-07-29T13:47:28;4.35;;;3.33;;
48006;SDS011;33771;48.180;11.400;2023-07-29T13:49:53;4.47;;;3.30;;
48006;SDS011;33771;48.180;11.400;2023-07-29T13:52:19;5.03;;;3.50;;
48006;SDS011;33771;48.180;11.400;2023-07-29T13:54:44;6.97;;;3.15;;
48006;SDS011;33771;48.180;11.400;2023-07-29T13:57:10;5.13;;;3.60;;
48006;SDS011;33771;48.180;11.400;2023-07-29T13:59:36;5.78;;;3.63;;
48006;SDS011;33771;48.180;11.400;2023-07-29T14:02:03;8.23;;;3.72;;
48006;SDS011;33771;48.180;11.400;2023-07-29T14:04:30;7.60;;;4.05;;
48006;SDS011;33771;48.180;11.400;2023-07-29T14:06:56;5.28;;;3.80;;
48006;SDS011;33771;48.180;11.400;2023-07-29T14:09:22;6.13;;;4.13;;
48006;SDS011;33771;48.180;11.400;2023-07-29T14:11:47;6.60;;;3.92;;
48006;SDS011;33771;48.180;11.400;2023-07-29T14:14:13;5.22;;;3.90;;
48006;SDS011;33771;48.180;11.400;2023-07-29T14:16:38;6.72;;;4.05;;
48006;SDS011;33771;48.180;11.400;2023-07-29T14:19:04;9.02;;;4.47;;
48006;SDS011;33771;48.180;11.400;2023-07-29T14:21:29;6.25;;;4.40;;
48006;SDS011;33771;48.180;11.400;2023-07-29T14:23:55;10.20;;;4.53;;
48006;SDS011;33771;48.180;11.400;2023-07-29T14:26:20;8.75;;;4.57;;
48006;SDS011;33771;48.180;11.400;2023-07-29T14:28:46;6.10;;;4.13;;
48006;SDS011;33771;48.180;11.400;2023-07-29T14:31:11;8.52;;;4.45;;
48006;SDS011;33771;48.180;11.400;2023-07-29T14:33:38;6.13;;;3.53;;
48006;SDS011;33771;48.180;11.400;2023-07-29T14:36:04;9.35;;;3.70;;
48006;SDS011;33771;48.180;11.400;2023-07-29T14:38:29;7.57;;;4.20;;
48006;SDS011;33771;48.180;11.400;2023-07-29T14:40:55;6.68;;;3.50;;
48006;SDS011;33771;48.180;11.400;2023-07-29T14:43:21;7.20;;;3.70;;
48006;SDS011;33771;48.180;11.400;2023-07-29T14:45:48;4.40;;;2.90;;
48006;SDS011;33771;48.180;11.400;2023-07-29T14:48:13;7.95;;;3.10;;
48006;SDS011;33771;48.180;11.400;2023-07-29T14:50:39;4.78;;;3.38;;
48006;SDS011;33771;48.180;11.400;2023-07-29T14:53:04;4.82;;;2.63;;
48006;SDS011;33771;48.180;11.400;2023-07-29T14:55:30;5.93;;;3.33;;
48006;SDS011;33771;48.180;11.400;2023-07-29T14:57:56;5.78;;;3.28;;
48006;SDS011;33771;48.180;11.400;2023-07-29T15:00:21;5.53;;;3.30;;